Time;durP1;ratioP1;P1;durP2;ratioP2;P2;SDS_P1;SDS_P2;PMS_P1;PMS_P2;Temp;Humidity;BMP_temperature;BMP_pressure;BME280_temperature;BME280_humidity;BME280_pressure;Samples;Min_cycle;Max_cycle;Signal;HPM_P1;HPM_P2
2023/10/30 00:02:06;;;;;;;5.22;5.00;;;;;;;9.95;100.00;99175.53;5973403;23;20089;-69
2023/10/30 00:04:41;;;;;;;4.20;4.00;;;;;;;10.70;100.00;99276.59;5953277;23;20405;-72
2023/10/30 00:07:18;;;;;;;9.60;5.32;;;;;;;10.65;100.00;99272.69;5980107;23;20553;-69
2023/10/30 00:09:48;;;;;;;11.40;4.53;;;;;;;9.86;100.00;99150.03;5981440;23;20026;-72
2023/10/30 00:12:18;;;;;;;4.75;4.45;;;;;;;10.65;100.00;99280.53;5978921;23;20544;-71
2023/10/30 00:14:45;;;;;;;4.40;4.20;;;;;;;10.31;100.00;99234.06;5961710;23;20022;-69
2023/10/30 00:17:21;;;;;;;4.40;4.20;;;;;;;10.66;100.00;99293.53;5986335;23;20022;-70
2023/10/30 00:20:02;;;;;;;4.20;4.00;;;;;;;7.95;100.00;98870.72;5968679;23;20039;-69
2023/10/30 00:22:37;;;;;;;4.35;4.15;;;;;;;10.69;100.00;99313.47;5954395;23;20028;-72
2023/10/30 00:25:13;;;;;;;4.90;4.50;;;;;;;10.08;100.00;99214.78;5975143;23;20521;-72
2023/10/30 00:27:45;;;;;;;5.82;4.38;;;;;;;10.70;100.00;99317.75;5976669;23;20035;-72
2023/10/30 00:30:18;;;;;;;7.75;5.80;;;;;;;10.71;100.00;99325.53;5964950;23;20147;-70
2023/10/30 00:32:49;;;;;;;4.40;4.20;;;;;;;10.25;100.00;99244.97;5956889;23;20582;-69
2023/10/30 00:35:16;;;;;;;4.30;4.10;;;;;;;10.11;100.00;99250.41;5968303;23;20027;-72
2023/10/30 00:37:49;;;;;;;4.30;4.10;;;;;;;10.03;100.00;99226.56;6000298;23;20154;-72
2023/10/30 00:40:32;;;;;;;4.72;4.50;;;;;;;10.24;100.00;99261.66;5972800;23;20039;-73
2023/10/30 00:43:02;;;;;;;4.70;4.40;;;;;;;10.13;100.00;99243.25;5968826;23;20098;-72
2023/10/30 00:45:36;;;;;;;5.32;4.88;;;;;;;10.43;100.00;99323.28;5968985;23;20019;-73
2023/10/30 00:48:14;;;;;;;6.13;5.57;;;;;;;9.95;100.00;99243.66;5989288;23;20458;-72
2023/10/30 00:50:47;;;;;;;7.47;4.45;;;;;;;10.09;100.00;99262.78;5948873;23;20015;-70
2023/10/30 00:53:17;;;;;;;5.18;4.88;;;;;;;10.33;100.00;99302.97;5988147;23;20015;-70
2023/10/30 00:56:03;;;;;;;4.65;4.35;;;;;;;10.09;100.00;99266.25;5961352;23;20533;-70
2023/10/30 00:58:35;;;;;;;4.68;4.47;;;;;;;10.31;100.00;99307.47;5999758;23;20033;-70
2023/10/30 01:01:10;;;;;;;5.78;5.38;;;;;;;10.71;100.00;99387.66;5995553;23;20654;-70
2023/10/30 01:03:39;;;;;;;4.43;4.22;;;;;;;9.93;100.00;99273.56;6029434;23;20073;-72
2023/10/30 01:09:24;;;;;;;4.47;4.28;;;;;;;10.54;100.00;99375.78;6009934;23;20023;-70
2023/10/30 01:11:56;;;;;;;4.78;4.47;;;;;;;10.08;100.00;99301.28;5997543;23;20035;-73
2023/10/30 01:14:25;;;;;;;4.72;4.53;;;;;;;10.74;100.00;99404.03;5979951;23;20019;-70
2023/10/30 01:16:52;;;;;;;4.40;4.20;;;;;;;10.73;100.00;99397.09;5974880;23;20035;-70
2023/10/30 01:19:23;;;;;;;6.88;4.45;;;;;;;10.26;100.00;99320.06;6023807;23;20026;-69
2023/10/30 01:21:53;;;;;;;4.40;4.20;;;;;;;10.26;100.00;99320.06;6027436;23;20609;-69
2023/10/30 01:24:27;;;;;;;4.50;4.30;;;;;;;10.27;100.00;99316.50;5995513;23;20023;-69
2023/10/30 01:26:54;;;;;;;5.78;5.35;;;;;;;10.27;100.00;99339.25;5977712;23;20584;-69
2023/10/30 01:29:26;;;;;;;4.63;4.40;;;;;;;10.75;100.00;99394.34;6022129;23;20033;-69
2023/10/30 01:31:58;;;;;;;4.90;4.60;;;;;;;10.30;100.00;99358.28;5999855;23;20041;-69
2023/10/30 01:34:26;;;;;;;6.47;4.22;;;;;;;10.72;100.00;99408.56;6022138;23;20035;-69
2023/10/30 01:36:57;;;;;;;4.43;4.18;;;;;;;9.47;100.00;99206.13;6002881;23;20046;-70
2023/10/30 01:39:27;;;;;;;4.30;4.10;;;;;;;10.74;100.00;99414.53;6031209;23;20746;-69
2023/10/30 01:41:57;;;;;;;4.97;4.72;;;;;;;10.02;100.00;99295.63;6005376;23;20035;-69
2023/10/30 01:44:27;;;;;;;5.38;4.55;;;;;;;10.36;100.00;99354.34;6009645;23;20022;-69
2023/10/30 01:46:54;;;;;;;4.82;4.55;;;;;;;10.68;100.00;99411.50;6005950;23;20026;-69
2023/10/30 01:49:27;;;;;;;4.82;4.53;;;;;;;10.64;100.00;99413.50;6023119;23;20031;-69
2023/10/30 01:51:59;;;;;;;5.22;4.93;;;;;;;10.64;100.00;99438.91;6006949;23;20030;-72
2023/10/30 01:54:32;;;;;;;4.20;4.00;;;;;;;9.99;100.00;99321.13;6010470;23;20034;-72
2023/10/30 01:57:09;;;;;;;4.57;4.38;;;;;;;10.36;100.00;99384.06;5988888;23;20038;-72
2023/10/30 01:59:39;;;;;;;6.57;4.45;;;;;;;10.63;100.00;99434.63;5978546;23;20041;-73
2023/10/30 02:02:07;;;;;;;6.53;6.03;;;;;;;9.63;100.00;99298.38;5979838;23;20774;-69
2023/10/30 02:04:37;;;;;;;4.50;4.15;;;;;;;10.46;100.00;99430.56;5952393;23;20020;-69
2023/10/30 02:07:11;;;;;;;5.53;4.55;;;;;;;9.95;100.00;99355.53;5976679;23;20492;-69
2023/10/30 02:09:39;;;;;;;4.60;4.32;;;;;;;10.20;100.00;99409.63;5999954;23;20031;-69
2023/10/30 02:12:15;;;;;;;5.57;5.28;;;;;;;9.74;100.00;99332.53;5974864;23;21581;-72
2023/10/30 02:14:46;;;;;;;4.40;4.20;;;;;;;10.39;100.00;99453.78;5976603;23;20071;-72
2023/10/30 02:17:16;;;;;;;4.55;4.10;;;;;;;10.04;100.00;99398.56;6006917;23;20029;-72
2023/10/30 02:19:43;;;;;;;4.50;4.30;;;;;;;10.10;100.00;99417.34;5986613;23;20035;-72
2023/10/30 02:22:10;;;;;;;9.32;4.63;;;;;;;10.21;100.00;99437.53;5976150;23;20103;-72
2023/10/30 02:24:36;;;;;;;4.40;4.20;;;;;;;10.35;100.00;99471.53;6002550;23;20071;-71
2023/10/30 02:27:09;;;;;;;4.97;4.60;;;;;;;10.17;100.00;99447.41;5964762;23;20035;-72
2023/10/30 02:29:36;;;;;;;4.40;4.20;;;;;;;10.16;100.00;99451.00;6003492;23;20506;-68
2023/10/30 02:32:06;;;;;;;5.78;5.40;;;;;;;10.02;100.00;99437.16;5968192;23;20090;-69
2023/10/30 02:34:36;;;;;;;4.25;4.05;;;;;;;10.32;100.00;99481.38;5982987;23;20033;-68
2023/10/30 02:37:03;;;;;;;4.63;4.30;;;;;;;9.73;100.00;99385.00;5975690;23;20514;-69
2023/10/30 02:39:32;;;;;;;4.20;3.90;;;;;;;9.57;100.00;99364.28;6000704;23;20019;-69
2023/10/30 02:42:20;;;;;;;6.30;5.97;;;;;;;10.28;100.00;99483.34;5977536;23;20027;-71
2023/10/30 02:44:46;;;;;;;4.30;4.10;;;;;;;10.04;100.00;99436.09;5997446;23;20247;-68
2023/10/30 02:47:13;;;;;;;4.63;4.35;;;;;;;9.72;100.00;99389.44;5977463;23;20022;-68
2023/10/30 02:49:43;;;;;;;8.93;4.45;;;;;;;10.31;100.00;99480.56;5984018;23;20042;-69
2023/10/30 02:52:09;;;;;;;5.05;4.75;;;;;;;10.34;100.00;99469.88;5943136;23;20065;-68
2023/10/30 02:54:36;;;;;;;4.25;4.05;;;;;;;9.42;100.00;99319.06;5963373;23;20023;-74
2023/10/30 02:57:11;;;;;;;4.13;3.92;;;;;;;9.98;100.00;99428.66;5999413;23;20126;-72
2023/10/30 02:59:39;;;;;;;8.52;4.68;;;;;;;9.38;100.00;99317.56;5977899;23;20090;-71
2023/10/30 03:02:17;;;;;;;15.00;14.20;;;;;;;9.93;100.00;99423.75;5955327;23;20019;-72
2023/10/30 03:05:02;;;;;;;4.75;4.55;;;;;;;9.84;100.00;99398.19;5955340;23;20776;-69
2023/10/30 03:07:30;;;;;;;4.57;4.38;;;;;;;10.26;100.00;99466.06;6009027;23;20035;-69
2023/10/30 03:10:04;;;;;;;5.78;5.47;;;;;;;10.12;100.00;99443.44;5943575;23;20023;-69
2023/10/30 03:12:34;;;;;;;4.80;4.47;;;;;;;9.80;100.00;99401.97;6027232;23;20576;-72
2023/10/30 03:15:01;;;;;;;4.57;4.20;;;;;;;8.25;100.00;99140.44;6004345;23;20034;-68
2023/10/30 03:17:34;;;;;;;5.32;4.32;;;;;;;10.25;100.00;99467.84;5975309;23;20032;-69
2023/10/30 03:20:07;;;;;;;5.43;5.15;;;;;;;9.19;100.00;99294.47;5957045;23;20101;-71
2023/10/30 03:22:47;;;;;;;;;;;;;;;10.28;100.00;99472.03;5952002;23;20103;-71
2023/10/30 03:25:17;;;;;;;4.25;4.05;;;;;;;10.16;100.00;99484.22;5975045;23;19966;-71
2023/10/30 03:27:44;;;;;;;4.45;4.25;;;;;;;9.92;100.00;99408.13;6002355;23;20864;-69
2023/10/30 03:30:11;;;;;;;4.82;4.60;;;;;;;10.01;100.00;99433.72;5975006;23;20031;-68
2023/10/30 03:32:42;;;;;;;4.50;4.30;;;;;;;6.27;100.00;98847.22;6024794;23;20101;-68
2023/10/30 03:35:09;;;;;;;4.80;4.50;;;;;;;9.64;100.00;99368.16;5977403;23;20015;-68
2023/10/30 03:37:36;;;;;;;8.82;4.90;;;;;;;8.26;100.00;99139.47;5998914;23;20031;-69
2023/10/30 03:40:06;;;;;;;6.03;5.72;;;;;;;9.88;100.00;99423.25;5993302;23;20050;-69
2023/10/30 03:42:34;;;;;;;4.50;4.30;;;;;;;9.30;100.00;99315.50;5995659;23;20035;-69
2023/10/30 03:45:07;;;;;;;6.25;4.30;;;;;;;10.29;100.00;99477.16;5998902;23;20321;-72
2023/10/30 03:47:40;;;;;;;5.05;4.60;;;;;;;9.48;100.00;99344.81;6001679;23;20069;-68
2023/10/30 03:50:08;;;;;;;5.95;5.50;;;;;;;8.78;100.00;99228.34;5969293;23;20051;-69
2023/10/30 03:52:35;;;;;;;4.40;4.20;;;;;;;9.70;100.00;99386.06;6001628;23;20477;-69
2023/10/30 03:55:08;;;;;;;4.80;4.40;;;;;;;9.87;100.00;99407.63;5984073;23;20027;-70
2023/10/30 03:57:35;;;;;;;5.38;4.50;;;;;;;9.87;100.00;99399.78;6030720;23;20036;-69
2023/10/30 04:00:08;;;;;;;5.80;5.50;;;;;;;10.35;100.00;99483.81;5985178;23;20035;-68
2023/10/30 04:02:39;;;;;;;5.20;4.90;;;;;;;9.84;100.00;99395.56;5967387;23;20082;-69
2023/10/30 04:05:09;;;;;;;4.68;4.47;;;;;;;10.38;100.00;99489.69;6026142;23;20080;-69
2023/10/30 04:07:38;;;;;;;4.40;4.20;;;;;;;10.36;100.00;99477.59;5983021;23;20103;-68
2023/10/30 04:10:08;;;;;;;8.50;5.78;;;;;;;10.24;100.00;99462.72;5989067;23;20081;-71
2023/10/30 04:12:39;;;;;;;4.32;4.13;;;;;;;10.42;100.00;99486.81;5998989;23;20023;-72
2023/10/30 04:15:10;;;;;;;5.03;4.75;;;;;;;9.79;100.00;99374.09;6013148;23;21270;-70
2023/10/30 04:17:37;;;;;;;4.30;4.10;;;;;;;10.17;100.00;99436.09;5991601;23;20059;-71
2023/10/30 04:20:06;;;;;;;6.78;5.22;;;;;;;10.30;100.00;99454.44;6007229;23;20022;-71
2023/10/30 04:22:39;;;;;;;5.07;4.78;;;;;;;10.44;100.00;99477.06;5968412;23;20035;-71
2023/10/30 04:25:12;;;;;;;4.22;4.03;;;;;;;10.44;100.00;99474.44;6002688;23;20470;-71
2023/10/30 04:27:45;;;;;;;4.30;4.10;;;;;;;9.99;100.00;99399.75;5998511;23;20019;-71
2023/10/30 04:30:23;;;;;;;12.30;4.78;;;;;;;10.40;100.00;99458.06;5983416;23;20058;-72
2023/10/30 04:32:53;;;;;;;4.43;4.22;;;;;;;10.41;100.00;99464.19;5998599;23;20039;-71
2023/10/30 04:35:25;;;;;;;4.90;4.70;;;;;;;10.39;100.00;99477.41;6016154;23;20089;-72
2023/10/30 04:37:55;;;;;;;4.85;4.55;;;;;;;9.42;100.00;99305.97;5967908;23;20043;-72
2023/10/30 04:40:26;;;;;;;4.50;4.30;;;;;;;9.95;100.00;99394.81;6015525;23;20502;-69
2023/10/30 04:42:54;;;;;;;4.72;4.50;;;;;;;9.74;100.00;99376.19;6037839;23;20571;-71
2023/10/30 04:45:24;;;;;;;4.50;4.22;;;;;;;9.59;100.00;99352.75;6002520;23;20082;-71
2023/10/30 04:47:57;;;;;;;4.72;4.53;;;;;;;10.02;100.00;99416.19;5988900;23;20111;-73
2023/10/30 04:50:33;;;;;;;4.30;4.10;;;;;;;10.33;100.00;99476.03;5982026;23;20523;-72
2023/10/30 04:53:01;;;;;;;4.90;4.70;;;;;;;10.32;100.00;99476.13;5993970;23;20047;-72
2023/10/30 04:55:29;;;;;;;4.35;4.15;;;;;;;9.98;100.00;99426.91;5994110;23;20114;-72
2023/10/30 04:58:04;;;;;;;5.40;5.10;;;;;;;8.26;100.00;99144.72;5987004;23;20030;-71
2023/10/30 05:00:37;;;;;;;6.18;5.28;;;;;;;10.27;100.00;99479.06;6023743;23;20621;-72
2023/10/30 05:03:20;;;;;;;5.70;4.35;;;;;;;10.26;100.00;99492.28;6000865;23;20066;-69
2023/10/30 05:06:11;;;;;;;6.20;5.85;;;;;;;10.29;100.00;99499.94;5995445;23;20054;-69
2023/10/30 05:08:45;;;;;;;4.32;4.13;;;;;;;10.02;100.00;99456.34;5986971;23;20038;-69
2023/10/30 05:11:11;;;;;;;4.80;4.50;;;;;;;9.21;100.00;99323.16;6020649;23;20126;-70
2023/10/30 05:13:47;;;;;;;4.43;4.13;;;;;;;10.23;100.00;99492.50;6005211;23;20025;-69
2023/10/30 05:16:22;;;;;;;4.57;4.38;;;;;;;10.19;100.00;99499.75;5971041;23;20023;-69
2023/10/30 05:18:53;;;;;;;4.50;4.30;;;;;;;9.82;100.00;99464.75;5964199;23;20895;-69
2023/10/30 05:21:20;;;;;;;4.53;4.22;;;;;;;9.28;100.00;99369.75;6002108;23;20030;-72
2023/10/30 05:23:48;;;;;;;6.63;5.05;;;;;;;9.27;100.00;99385.56;6028510;23;20013;-71
2023/10/30 05:26:16;;;;;;;4.20;3.90;;;;;;;10.13;100.00;99531.63;6003402;23;20022;-69
2023/10/30 05:28:45;;;;;;;4.40;4.20;;;;;;;8.48;100.00;99253.91;6027401;23;20037;-72
2023/10/30 05:31:13;;;;;;;11.10;4.28;;;;;;;9.81;100.00;99465.72;6005061;23;20034;-73
2023/10/30 05:33:45;;;;;;;4.53;4.32;;;;;;;10.22;100.00;99535.38;6028952;23;20047;-71
2023/10/30 05:36:15;;;;;;;4.60;4.40;;;;;;;10.00;100.00;99494.91;6002934;23;20205;-69
2023/10/30 05:38:46;;;;;;;4.30;4.10;;;;;;;10.22;100.00;99533.59;6014563;23;20018;-69
2023/10/30 05:41:19;;;;;;;4.20;4.00;;;;;;;9.87;100.00;99479.22;6009666;23;20019;-69
2023/10/30 05:43:50;;;;;;;7.10;5.15;;;;;;;9.90;100.00;99476.41;6028807;23;20087;-69
2023/10/30 05:46:17;;;;;;;4.60;4.40;;;;;;;9.74;100.00;99446.94;5970544;23;20079;-69
2023/10/30 05:48:44;;;;;;;8.20;4.30;;;;;;;9.83;100.00;99469.06;5987920;23;20015;-69
2023/10/30 05:51:20;;;;;;;4.95;4.60;;;;;;;9.58;100.00;99426.19;6011019;23;20085;-69
2023/10/30 05:53:47;;;;;;;8.32;4.68;;;;;;;9.40;100.00;99391.63;5996298;23;20533;-69
2023/10/30 05:56:18;;;;;;;8.10;4.40;;;;;;;9.83;100.00;99463.81;6000238;23;20023;-69
2023/10/30 05:58:57;;;;;;;10.23;4.53;;;;;;;10.08;100.00;99500.50;6003670;23;20834;-68
2023/10/30 06:01:23;;;;;;;4.22;4.03;;;;;;;10.22;100.00;99517.88;6003566;23;20395;-69
2023/10/30 06:03:56;;;;;;;4.70;4.40;;;;;;;10.30;100.00;99526.09;6000369;23;20034;-69
2023/10/30 06:06:32;;;;;;;4.85;4.55;;;;;;;8.96;100.00;99306.50;6003992;23;20023;-69
2023/10/30 06:09:03;;;;;;;4.40;4.20;;;;;;;9.45;100.00;99388.72;6024665;23;20011;-69
2023/10/30 06:11:38;;;;;;;5.15;4.28;;;;;;;10.23;100.00;99513.47;6000121;23;20027;-70
2023/10/30 06:14:05;;;;;;;6.30;5.65;;;;;;;10.22;100.00;99511.78;6027218;23;20080;-72
2023/10/30 06:16:43;;;;;;;4.60;4.30;;;;;;;9.36;100.00;99380.53;6007163;23;20035;-72
2023/10/30 06:19:10;;;;;;;4.30;4.10;;;;;;;10.22;100.00;99533.59;5999992;23;20023;-72
2023/10/30 06:21:43;;;;;;;4.50;4.30;;;;;;;10.17;100.00;99510.34;6023204;23;20226;-71
2023/10/30 06:24:10;;;;;;;5.10;4.82;;;;;;;9.92;100.00;99482.38;6024206;23;20203;-71
2023/10/30 06:26:42;;;;;;;5.07;4.68;;;;;;;10.14;100.00;99515.81;6002619;23;20185;-72
2023/10/30 06:29:11;;;;;;;4.32;4.13;;;;;;;9.49;100.00;99408.50;6028032;23;20023;-71
2023/10/30 06:31:38;;;;;;;4.90;4.60;;;;;;;9.70;100.00;99432.38;6028509;23;20031;-69
2023/10/30 06:34:05;;;;;;;6.00;5.70;;;;;;;10.20;100.00;99517.13;5995777;23;20032;-70
2023/10/30 06:36:40;;;;;;;4.40;4.20;;;;;;;10.17;100.00;99531.31;5997599;23;20018;-70
2023/10/30 06:39:17;;;;;;;5.03;4.63;;;;;;;10.15;100.00;99529.75;6005021;23;20094;-70
2023/10/30 06:41:56;;;;;;;5.60;5.18;;;;;;;9.61;100.00;99448.72;6025125;23;20379;-69
2023/10/30 06:44:31;;;;;;;4.18;3.97;;;;;;;9.64;100.00;99453.75;5990480;23;20027;-69
2023/10/30 06:47:02;;;;;;;4.38;4.18;;;;;;;10.06;100.00;99525.13;6000705;23;20031;-69
2023/10/30 06:49:29;;;;;;;4.17;3.97;;;;;;;10.06;100.00;99553.97;5997926;23;20018;-70
2023/10/30 06:52:05;;;;;;;6.35;5.93;;;;;;;9.19;100.00;99404.41;5973379;23;20035;-69
2023/10/30 06:54:34;;;;;;;5.07;4.75;;;;;;;10.02;100.00;99542.00;5976455;23;20031;-70
2023/10/30 06:57:05;;;;;;;4.93;4.63;;;;;;;9.96;100.00;99532.78;5970562;23;20019;-69
2023/10/30 06:59:32;;;;;;;4.35;4.15;;;;;;;9.37;100.00;99450.28;6001136;23;20021;-70
2023/10/30 07:01:59;;;;;;;5.75;5.45;;;;;;;9.62;100.00;99489.69;6024704;23;20867;-69
2023/10/30 07:04:25;;;;;;;4.13;3.92;;;;;;;9.44;100.00;99463.81;6002239;23;20033;-69
2023/10/30 07:06:52;;;;;;;6.95;4.53;;;;;;;9.61;100.00;99490.66;6020868;23;20041;-69
2023/10/30 07:09:19;;;;;;;4.30;4.10;;;;;;;10.05;100.00;99554.91;6016755;23;20520;-69
2023/10/30 07:11:46;;;;;;;4.78;4.47;;;;;;;9.93;100.00;99557.41;6024288;23;20093;-70
2023/10/30 07:14:15;;;;;;;5.68;5.28;;;;;;;9.69;100.00;99510.13;6017205;23;20089;-69
2023/10/30 07:16:41;;;;;;;5.95;5.30;;;;;;;9.73;100.00;99544.81;6023162;23;20026;-69
2023/10/30 07:19:26;;;;;;;4.82;4.43;;;;;;;9.68;100.00;99521.56;5998396;23;20549;-69
2023/10/30 07:21:53;;;;;;;4.75;4.55;;;;;;;9.76;100.00;99528.88;5980600;23;20022;-70
2023/10/30 07:24:21;;;;;;;4.70;4.50;;;;;;;10.17;100.00;99582.91;5996737;23;20971;-69
2023/10/30 07:26:48;;;;;;;4.47;4.28;;;;;;;10.21;100.00;99592.25;5991209;23;20023;-69
2023/10/30 07:29:14;;;;;;;4.60;4.40;;;;;;;10.28;100.00;99577.75;6025411;23;20351;-69
2023/10/30 07:31:41;;;;;;;6.13;4.65;;;;;;;10.05;100.00;99552.28;5960728;23;20031;-70
2023/10/30 07:34:09;;;;;;;5.70;5.22;;;;;;;9.78;100.00;99479.84;6012567;23;20264;-70
2023/10/30 07:36:36;;;;;;;10.05;5.55;;;;;;;10.47;100.00;99584.41;6006121;23;20101;-70
2023/10/30 07:39:07;;;;;;;4.95;4.50;;;;;;;8.16;100.00;99194.16;6000441;23;20316;-71
2023/10/30 07:41:37;;;;;;;5.32;4.93;;;;;;;9.58;100.00;99413.97;6020131;23;20569;-69
2023/10/30 07:44:08;;;;;;;6.15;5.85;;;;;;;10.38;100.00;99521.16;6017369;23;20022;-71
2023/10/30 07:46:35;;;;;;;4.40;4.20;;;;;;;11.06;100.00;99587.19;5990191;23;20529;-69
2023/10/30 07:49:06;;;;;;;4.90;4.45;;;;;;;10.96;100.00;99544.16;6013803;23;20022;-69
2023/10/30 07:51:36;;;;;;;5.30;4.90;;;;;;;11.42;100.00;99567.06;5961635;23;20405;-69
2023/10/30 07:54:03;;;;;;;6.43;6.10;;;;;;;11.20;100.00;99519.69;6014551;23;20445;-69
2023/10/30 07:56:33;;;;;;;4.85;4.40;;;;;;;11.09;100.00;99454.84;5989978;23;20234;-70
2023/10/30 07:59:05;;;;;;;6.00;5.40;;;;;;;11.54;100.00;99508.34;5969109;23;20023;-70
2023/10/30 08:01:32;;;;;;;5.05;4.75;;;;;;;11.01;100.00;99405.53;5993521;23;20031;-71
2023/10/30 08:04:06;;;;;;;5.93;5.53;;;;;;;11.67;100.00;99491.66;6000887;23;20021;-68
2023/10/30 08:06:32;;;;;;;4.68;4.38;;;;;;;11.73;100.00;99471.00;6025193;23;20062;-71
2023/10/30 08:08:59;;;;;;;4.90;4.55;;;;;;;11.80;100.00;99468.72;5997970;23;20011;-70
2023/10/30 08:11:26;;;;;;;4.82;4.50;;;;;;;11.56;100.00;99411.84;6016339;23;20042;-70
2023/10/30 08:13:55;;;;;;;5.50;5.20;;;;;;;11.93;100.00;99451.09;5969621;23;20037;-70
2023/10/30 08:16:22;;;;;;;5.63;4.60;;;;;;;11.92;100.00;99436.25;6023159;23;20593;-72
2023/10/30 08:18:48;;;;;;;5.63;4.57;;;;;;;12.02;100.00;99452.16;5995690;23;20779;-72
2023/10/30 08:21:15;;;;;;;5.40;5.10;;;;;;;11.78;100.00;99395.25;6024873;23;20613;-71
2023/10/30 08:23:42;;;;;;;5.07;4.70;;;;;;;11.93;100.00;99409.03;5984172;23;20034;-71
2023/10/30 08:26:08;;;;;;;6.28;5.88;;;;;;;12.24;100.00;99445.22;5999129;23;20030;-71
2023/10/30 08:28:38;;;;;;;4.97;4.68;;;;;;;11.80;100.00;99349.63;5996587;23;20037;-71
2023/10/30 08:31:05;;;;;;;5.72;4.97;;;;;;;12.53;100.00;99440.28;5969458;23;20027;-71
2023/10/30 08:33:32;;;;;;;4.80;4.60;;;;;;;12.45;100.00;99397.94;6019716;23;20019;-71
2023/10/30 08:35:58;;;;;;;7.53;6.18;;;;;;;12.70;100.00;99410.78;5964532;23;20060;-71
2023/10/30 08:38:25;;;;;;;6.05;5.43;;;;;;;12.75;100.00;99410.41;6022074;23;20022;-71
2023/10/30 08:40:51;;;;;;;5.25;4.97;;;;;;;12.83;100.00;99397.47;5991668;23;20031;-71
2023/10/30 08:43:18;;;;;;;6.00;5.50;;;;;;;12.67;100.00;99347.00;5994333;23;20599;-71
2023/10/30 08:45:44;;;;;;;5.18;4.88;;;;;;;13.13;100.00;99380.91;6025177;23;20039;-70
2023/10/30 08:48:12;;;;;;;6.20;5.90;;;;;;;12.91;100.00;99342.34;5992485;23;20061;-70
2023/10/30 08:50:45;;;;;;;5.30;4.88;;;;;;;13.19;100.00;99358.47;5998307;23;20031;-70
2023/10/30 08:53:12;;;;;;;5.05;4.75;;;;;;;12.87;100.00;99287.44;5990577;23;20043;-72
2023/10/30 08:55:40;;;;;;;5.30;5.00;;;;;;;12.99;100.00;99267.97;6001145;23;20423;-72
2023/10/30 08:58:07;;;;;;;6.47;6.18;;;;;;;13.42;100.00;99274.03;6010985;23;20051;-70
2023/10/30 09:00:37;;;;;;;5.40;5.10;;;;;;;13.43;100.00;99267.75;5986731;23;20150;-73
2023/10/30 09:03:04;;;;;;;5.60;5.30;;;;;;;13.46;100.00;99241.16;5992925;23;20053;-71
2023/10/30 09:05:31;;;;;;;4.90;4.70;;;;;;;12.68;100.00;99094.22;5993564;23;20090;-70
2023/10/30 09:07:58;;;;;;;6.43;6.03;;;;;;;13.42;100.00;99222.13;6019147;23;20019;-70
2023/10/30 09:10:32;;;;;;;4.90;4.70;;;;;;;13.46;100.00;99223.53;5985759;23;20859;-70
2023/10/30 09:12:58;;;;;;;4.97;4.78;;;;;;;13.15;100.00;99154.25;6006401;23;20524;-71
2023/10/30 09:15:25;;;;;;;4.82;4.63;;;;;;;13.16;100.00;99143.56;6030867;23;20038;-70
2023/10/30 09:17:52;;;;;;;5.22;4.93;;;;;;;13.04;100.00;99096.41;5974873;23;21737;-70
2023/10/30 09:20:20;;;;;;;6.32;5.40;;;;;;;13.08;100.00;99074.09;5996068;23;20023;-70
2023/10/30 09:22:46;;;;;;;5.13;4.82;;;;;;;12.30;100.00;98944.94;6024948;23;20078;-71
2023/10/30 09:25:13;;;;;;;5.38;4.97;;;;;;;13.78;100.00;99169.75;6003255;23;20102;-70
2023/10/30 09:27:40;;;;;;;6.40;5.90;;;;;;;13.70;100.00;99146.72;5975612;23;20098;-72
2023/10/30 09:30:06;;;;;;;6.18;5.88;;;;;;;13.42;100.00;99124.63;5991788;23;20701;-71
2023/10/30 09:32:33;;;;;;;5.47;5.18;;;;;;;13.83;100.00;99179.88;5997348;23;20043;-69
2023/10/30 09:35:00;;;;;;;5.43;4.93;;;;;;;13.79;100.00;99175.84;6026572;23;20137;-70
2023/10/30 09:37:29;;;;;;;5.53;5.25;;;;;;;13.85;100.00;99193.75;5996280;23;20479;-69
2023/10/30 09:39:56;;;;;;;6.13;5.82;;;;;;;13.92;100.00;99187.81;6019000;23;20089;-67
2023/10/30 09:42:23;;;;;;;5.50;5.18;;;;;;;14.01;100.00;99141.31;5998752;23;20039;-69
2023/10/30 09:44:49;;;;;;;4.88;4.68;;;;;;;14.07;100.00;99085.34;5991796;23;20102;-69
2023/10/30 09:47:19;;;;;;;4.55;4.35;;;;;;;14.16;100.00;99071.28;6002327;23;20023;-69
2023/10/30 09:49:50;;;;;;;5.15;4.70;;;;;;;14.12;100.00;99029.53;6003009;23;20093;-70
2023/10/30 09:52:19;;;;;;;5.20;4.70;;;;;;;13.98;100.00;99024.72;5996783;23;21103;-69
2023/10/30 09:54:48;;;;;;;4.60;4.40;;;;;;;14.11;100.00;99031.34;6028635;23;20050;-69
2023/10/30 09:57:15;;;;;;;11.02;4.90;;;;;;;14.38;100.00;99071.94;5946401;23;20028;-69
2023/10/30 09:59:43;;;;;;;5.00;4.80;;;;;;;14.52;100.00;99073.25;5969794;23;20038;-71
2023/10/30 10:02:10;;;;;;;5.13;4.93;;;;;;;14.24;100.00;98983.50;5982791;23;20426;-71
2023/10/30 10:04:40;;;;;;;5.15;4.90;;;;;;;14.35;100.00;98993.88;5974137;23;20027;-71
2023/10/30 10:07:08;;;;;;;5.13;4.82;;;;;;;14.75;100.00;99049.97;6004495;23;20092;-71
2023/10/30 10:09:55;;;;;;;5.10;4.90;;;;;;;14.81;100.00;99028.25;6002110;23;20035;-68
2023/10/30 10:12:22;;;;;;;4.60;4.40;;;;;;;14.51;100.00;98958.94;5973578;23;20047;-72
2023/10/30 10:14:49;;;;;;;4.80;4.60;;;;;;;14.87;100.00;99034.75;5974875;23;20043;-69
2023/10/30 10:17:16;;;;;;;4.75;4.55;;;;;;;14.69;100.00;98969.56;5999608;23;20035;-69
2023/10/30 10:19:48;;;;;;;5.30;5.10;;;;;;;15.02;100.00;98983.06;5974068;23;20130;-70
2023/10/30 10:22:29;;;;;;;5.13;4.82;;;;;;;14.67;99.85;98881.75;5994294;23;20095;-69
2023/10/30 10:24:57;;;;;;;4.82;4.63;;;;;;;14.93;100.00;98968.97;5978952;23;20031;-69
2023/10/30 10:27:24;;;;;;;4.78;4.50;;;;;;;14.93;100.00;98976.03;6000863;23;20031;-69
2023/10/30 10:29:57;;;;;;;4.80;4.50;;;;;;;15.00;100.00;98979.75;5996308;23;20064;-70
2023/10/30 10:32:28;;;;;;;4.82;4.57;;;;;;;14.89;100.00;98977.31;5956160;23;20035;-70
2023/10/30 10:35:09;;;;;;;5.00;4.70;;;;;;;15.11;100.00;98963.69;5972337;23;20095;-69
2023/10/30 10:45:18;;;;;;;5.53;5.22;;;;;;;14.43;98.87;98818.13;5963657;23;20034;-72
2023/10/30 10:47:44;;;;;;;4.97;4.75;;;;;;;14.59;96.42;98791.06;5977234;23;20047;-72
2023/10/30 10:50:11;;;;;;;5.05;4.85;;;;;;;15.74;93.95;98916.91;5989416;23;20377;-70
2023/10/30 10:52:39;;;;;;;5.00;4.80;;;;;;;16.05;93.58;98916.38;5970171;23;20528;-72
2023/10/30 10:55:07;;;;;;;5.00;4.80;;;;;;;16.12;93.17;98912.13;5997635;23;20556;-71
2023/10/30 10:57:52;;;;;;;4.97;4.72;;;;;;;16.03;90.87;98846.91;5975034;23;20019;-72
2023/10/30 11:00:20;;;;;;;5.00;4.80;;;;;;;14.77;90.73;98649.28;6000504;23;20046;-72
2023/10/30 11:02:49;;;;;;;4.90;4.70;;;;;;;15.79;93.28;98890.78;5971791;23;20035;-76
2023/10/30 11:05:16;;;;;;;5.45;5.10;;;;;;;15.76;94.16;98933.44;5999580;23;20517;-71
2023/10/30 11:07:57;;;;;;;6.15;5.75;;;;;;;15.83;94.96;98952.97;5966995;23;20538;-73
2023/10/30 11:10:34;;;;;;;5.10;4.80;;;;;;;15.42;95.10;98905.09;5974711;23;20018;-74
2023/10/30 11:13:38;;;;;;;4.93;4.63;;;;;;;15.70;93.67;98910.25;6001172;23;20037;-70
2023/10/30 11:16:13;;;;;;;6.20;5.90;;;;;;;15.39;96.63;98937.13;5973172;23;20050;-73
2023/10/30 11:18:39;;;;;;;5.25;4.95;;;;;;;15.52;96.01;98944.66;5996396;23;20018;-72
2023/10/30 11:21:09;;;;;;;4.90;4.70;;;;;;;15.45;96.99;98962.94;6008582;23;20027;-72
2023/10/30 11:23:44;;;;;;;5.13;4.82;;;;;;;15.26;97.86;98966.59;5977905;23;20055;-71
2023/10/30 11:26:41;;;;;;;5.90;5.50;;;;;;;15.05;98.97;98947.59;5974647;23;20050;-73
2023/10/30 11:29:16;;;;;;;4.80;4.50;;;;;;;14.72;100.00;98947.28;5982285;23;20727;-72
2023/10/30 11:32:00;;;;;;;5.13;4.82;;;;;;;14.75;100.00;98982.16;5973176;23;20180;-76
2023/10/30 11:34:37;;;;;;;5.68;5.30;;;;;;;14.66;100.00;99014.72;5975147;23;20027;-75
2023/10/30 11:37:14;;;;;;;5.05;4.80;;;;;;;14.54;100.00;99032.53;5998679;23;20125;-76
2023/10/30 11:39:42;;;;;;;5.47;5.18;;;;;;;14.14;100.00;99019.66;5973578;23;20745;-72
2023/10/30 11:42:21;;;;;;;5.95;5.38;;;;;;;14.43;100.00;99100.50;5955734;23;20115;-73
2023/10/30 11:44:49;;;;;;;8.70;5.53;;;;;;;14.40;100.00;99114.84;5969269;23;20034;-74
2023/10/30 11:47:22;;;;;;;5.70;5.30;;;;;;;13.55;100.00;99001.34;5978395;23;20035;-72
2023/10/30 11:49:55;;;;;;;4.82;4.63;;;;;;;14.18;100.00;99136.28;5977496;23;20042;-72
2023/10/30 11:52:23;;;;;;;5.75;5.25;;;;;;;14.27;100.00;99151.25;5975050;23;20035;-71
2023/10/30 11:54:49;;;;;;;5.20;4.90;;;;;;;13.84;100.00;99071.63;5995251;23;20035;-74